sensor_id;sensor_type;location;lat;lon;timestamp;P1;durP1;ratioP1;P2;durP2;ratioP2
75129;SDS011;63703;44.716;37.846;2023-05-07T00:00:04;10.07;;;2.47;;
75129;SDS011;63703;44.716;37.846;2023-05-07T00:02:33;13.25;;;2.53;;
75129;SDS011;63703;44.716;37.846;2023-05-07T00:05:00;15.98;;;3.47;;
75129;SDS011;63703;44.716;37.846;2023-05-07T00:07:27;11.40;;;3.47;;
75129;SDS011;63703;44.716;37.846;2023-05-07T00:09:53;14.10;;;2.53;;
75129;SDS011;63703;44.716;37.846;2023-05-07T00:12:19;13.50;;;2.35;;
75129;SDS011;63703;44.716;37.846;2023-05-07T00:14:45;10.65;;;2.78;;
75129;SDS011;63703;44.716;37.846;2023-05-07T00:17:11;9.07;;;3.47;;
75129;SDS011;63703;44.716;37.846;2023-05-07T00:19:37;11.43;;;2.22;;
75129;SDS011;63703;44.716;37.846;2023-05-07T00:22:03;12.80;;;2.63;;
75129;SDS011;63703;44.716;37.846;2023-05-07T00:24:29;11.32;;;2.60;;
75129;SDS011;63703;44.716;37.846;2023-05-07T00:26:55;8.50;;;2.88;;
75129;SDS011;63703;44.716;37.846;2023-05-07T00:29:20;7.40;;;2.72;;
75129;SDS011;63703;44.716;37.846;2023-05-07T00:31:46;13.73;;;3.65;;
75129;SDS011;63703;44.716;37.846;2023-05-07T00:34:15;10.13;;;2.75;;
75129;SDS011;63703;44.716;37.846;2023-05-07T00:36:40;10.43;;;2.78;;
75129;SDS011;63703;44.716;37.846;2023-05-07T00:39:06;10.23;;;3.85;;
75129;SDS011;63703;44.716;37.846;2023-05-07T00:41:32;10.55;;;3.58;;
75129;SDS011;63703;44.716;37.846;2023-05-07T00:43:58;13.20;;;2.80;;
75129;SDS011;63703;44.716;37.846;2023-05-07T00:46:24;13.32;;;2.97;;
75129;SDS011;63703;44.716;37.846;2023-05-07T00:48:51;7.78;;;2.83;;
75129;SDS011;63703;44.716;37.846;2023-05-07T00:51:17;12.27;;;2.88;;
75129;SDS011;63703;44.716;37.846;2023-05-07T00:53:44;8.35;;;2.53;;
75129;SDS011;63703;44.716;37.846;2023-05-07T00:56:10;9.20;;;2.30;;
75129;SDS011;63703;44.716;37.846;2023-05-07T00:58:37;7.57;;;1.63;;
75129;SDS011;63703;44.716;37.846;2023-05-07T01:01:03;8.55;;;2.38;;
75129;SDS011;63703;44.716;37.846;2023-05-07T01:03:29;18.63;;;2.45;;
75129;SDS011;63703;44.716;37.846;2023-05-07T01:05:55;10.80;;;2.10;;
75129;SDS011;63703;44.716;37.846;2023-05-07T01:08:23;10.50;;;3.22;;
75129;SDS011;63703;44.716;37.846;2023-05-07T01:10:52;8.88;;;2.72;;
75129;SDS011;63703;44.716;37.846;2023-05-07T01:13:18;7.70;;;3.05;;
75129;SDS011;63703;44.716;37.846;2023-05-07T01:15:45;8.05;;;2.00;;
75129;SDS011;63703;44.716;37.846;2023-05-07T01:18:11;5.45;;;1.38;;
75129;SDS011;63703;44.716;37.846;2023-05-07T01:20:39;7.07;;;2.65;;
75129;SDS011;63703;44.716;37.846;2023-05-07T01:23:05;8.13;;;2.42;;
75129;SDS011;63703;44.716;37.846;2023-05-07T01:25:33;12.80;;;2.85;;
75129;SDS011;63703;44.716;37.846;2023-05-07T01:28:00;6.22;;;2.47;;
75129;SDS011;63703;44.716;37.846;2023-05-07T01:30:30;5.43;;;3.45;;
75129;SDS011;63703;44.716;37.846;2023-05-07T01:33:09;7.65;;;2.88;;
75129;SDS011;63703;44.716;37.846;2023-05-07T01:35:40;5.47;;;3.20;;
75129;SDS011;63703;44.716;37.846;2023-05-07T01:38:09;7.65;;;2.60;;
75129;SDS011;63703;44.716;37.846;2023-05-07T01:40:35;11.13;;;3.50;;
75129;SDS011;63703;44.716;37.846;2023-05-07T01:43:04;6.95;;;3.38;;
75129;SDS011;63703;44.716;37.846;2023-05-07T01:45:32;5.13;;;2.15;;
75129;SDS011;63703;44.716;37.846;2023-05-07T01:48:01;7.32;;;2.17;;
75129;SDS011;63703;44.716;37.846;2023-05-07T01:50:28;8.75;;;4.68;;
75129;SDS011;63703;44.716;37.846;2023-05-07T01:52:54;8.48;;;4.40;;
75129;SDS011;63703;44.716;37.846;2023-05-07T01:55:21;10.70;;;3.80;;
75129;SDS011;63703;44.716;37.846;2023-05-07T01:57:47;6.07;;;3.03;;
75129;SDS011;63703;44.716;37.846;2023-05-07T02:00:13;8.35;;;3.35;;
75129;SDS011;63703;44.716;37.846;2023-05-07T02:02:42;7.93;;;5.15;;
75129;SDS011;63703;44.716;37.846;2023-05-07T02:05:18;7.75;;;3.55;;
75129;SDS011;63703;44.716;37.846;2023-05-07T02:07:47;5.43;;;3.40;;
75129;SDS011;63703;44.716;37.846;2023-05-07T02:10:14;5.20;;;2.47;;
75129;SDS011;63703;44.716;37.846;2023-05-07T02:12:40;7.75;;;3.75;;
75129;SDS011;63703;44.716;37.846;2023-05-07T02:15:08;7.63;;;3.33;;
75129;SDS011;63703;44.716;37.846;2023-05-07T02:17:34;5.00;;;3.08;;
75129;SDS011;63703;44.716;37.846;2023-05-07T02:20:02;6.25;;;3.50;;
75129;SDS011;63703;44.716;37.846;2023-05-07T02:22:29;6.82;;;4.60;;
75129;SDS011;63703;44.716;37.846;2023-05-07T02:24:55;11.35;;;4.15;;
75129;SDS011;63703;44.716;37.846;2023-05-07T02:27:21;11.07;;;2.95;;
75129;SDS011;63703;44.716;37.846;2023-05-07T02:29:47;7.63;;;3.25;;
75129;SDS011;63703;44.716;37.846;2023-05-07T02:32:13;5.22;;;2.25;;
75129;SDS011;63703;44.716;37.846;2023-05-07T02:34:39;5.55;;;3.53;;
75129;SDS011;63703;44.716;37.846;2023-05-07T02:37:05;4.30;;;2.95;;
75129;SDS011;63703;44.716;37.846;2023-05-07T02:39:31;5.78;;;2.67;;
75129;SDS011;63703;44.716;37.846;2023-05-07T02:41:57;6.40;;;3.20;;
75129;SDS011;63703;44.716;37.846;2023-05-07T02:44:23;6.30;;;2.35;;
75129;SDS011;63703;44.716;37.846;2023-05-07T02:46:50;7.32;;;3.05;;
75129;SDS011;63703;44.716;37.846;2023-05-07T02:49:16;6.55;;;3.30;;
75129;SDS011;63703;44.716;37.846;2023-05-07T02:51:43;5.18;;;3.25;;
75129;SDS011;63703;44.716;37.846;2023-05-07T02:54:15;7.07;;;3.92;;
75129;SDS011;63703;44.716;37.846;2023-05-07T02:56:41;12.98;;;3.40;;
75129;SDS011;63703;44.716;37.846;2023-05-07T02:59:07;8.13;;;3.90;;
75129;SDS011;63703;44.716;37.846;2023-05-07T03:01:38;6.65;;;3.42;;
75129;SDS011;63703;44.716;37.846;2023-05-07T03:04:06;7.53;;;3.17;;
75129;SDS011;63703;44.716;37.846;2023-05-07T03:06:32;5.68;;;3.22;;
75129;SDS011;63703;44.716;37.846;2023-05-07T03:08:58;6.50;;;3.22;;
75129;SDS011;63703;44.716;37.846;2023-05-07T03:11:24;5.38;;;3.15;;
75129;SDS011;63703;44.716;37.846;2023-05-07T03:13:50;6.07;;;3.30;;
75129;SDS011;63703;44.716;37.846;2023-05-07T03:16:18;9.73;;;4.32;;
75129;SDS011;63703;44.716;37.846;2023-05-07T03:18:45;7.90;;;4.07;;
75129;SDS011;63703;44.716;37.846;2023-05-07T03:21:11;10.23;;;5.53;;
75129;SDS011;63703;44.716;37.846;2023-05-07T03:23:37;5.93;;;4.25;;
75129;SDS011;63703;44.716;37.846;2023-05-07T03:26:03;9.18;;;5.38;;
75129;SDS011;63703;44.716;37.846;2023-05-07T03:28:29;8.40;;;4.30;;
75129;SDS011;63703;44.716;37.846;2023-05-07T03:30:59;7.07;;;3.83;;
75129;SDS011;63703;44.716;37.846;2023-05-07T03:33:25;6.75;;;4.32;;
75129;SDS011;63703;44.716;37.846;2023-05-07T03:35:53;9.63;;;5.03;;
75129;SDS011;63703;44.716;37.846;2023-05-07T03:38:23;7.07;;;4.18;;
75129;SDS011;63703;44.716;37.846;2023-05-07T03:40:49;7.45;;;4.75;;
75129;SDS011;63703;44.716;37.846;2023-05-07T03:43:15;8.63;;;4.82;;
75129;SDS011;63703;44.716;37.846;2023-05-07T03:45:46;8.27;;;4.63;;
75129;SDS011;63703;44.716;37.846;2023-05-07T03:48:20;9.00;;;3.80;;
75129;SDS011;63703;44.716;37.846;2023-05-07T03:50:48;8.13;;;4.00;;
75129;SDS011;63703;44.716;37.846;2023-05-07T03:53:16;11.07;;;5.50;;
75129;SDS011;63703;44.716;37.846;2023-05-07T03:55:42;11.85;;;6.85;;
75129;SDS011;63703;44.716;37.846;2023-05-07T03:58:08;11.57;;;6.60;;
75129;SDS011;63703;44.716;37.846;2023-05-07T04:00:34;11.77;;;6.05;;
75129;SDS011;63703;44.716;37.846;2023-05-07T04:03:10;11.38;;;6.20;;
75129;SDS011;63703;44.716;37.846;2023-05-07T04:05:36;9.68;;;5.30;;
75129;SDS011;63703;44.716;37.846;2023-05-07T04:08:02;7.97;;;5.65;;
75129;SDS011;63703;44.716;37.846;2023-05-07T04:10:37;7.25;;;5.50;;
75129;SDS011;63703;44.716;37.846;2023-05-07T04:13:07;9.43;;;7.72;;
75129;SDS011;63703;44.716;37.846;2023-05-07T04:15:35;12.13;;;8.27;;
75129;SDS011;63703;44.716;37.846;2023-05-07T04:18:01;10.23;;;6.80;;
75129;SDS011;63703;44.716;37.846;2023-05-07T04:20:27;13.20;;;6.95;;
75129;SDS011;63703;44.716;37.846;2023-05-07T04:22:59;11.55;;;6.13;;
75129;SDS011;63703;44.716;37.846;2023-05-07T04:25:25;11.20;;;8.13;;
75129;SDS011;63703;44.716;37.846;2023-05-07T04:27:56;11.23;;;7.28;;
75129;SDS011;63703;44.716;37.846;2023-05-07T04:30:25;13.38;;;5.82;;
75129;SDS011;63703;44.716;37.846;2023-05-07T04:32:51;11.25;;;4.38;;
75129;SDS011;63703;44.716;37.846;2023-05-07T04:35:18;8.60;;;4.80;;
75129;SDS011;63703;44.716;37.846;2023-05-07T04:37:45;9.65;;;5.53;;
75129;SDS011;63703;44.716;37.846;2023-05-07T04:40:12;8.02;;;5.40;;
75129;SDS011;63703;44.716;37.846;2023-05-07T04:42:38;8.40;;;5.72;;
75129;SDS011;63703;44.716;37.846;2023-05-07T04:45:04;6.85;;;4.28;;
75129;SDS011;63703;44.716;37.846;2023-05-07T04:47:32;9.80;;;5.35;;
75129;SDS011;63703;44.716;37.846;2023-05-07T04:50:00;7.18;;;5.15;;
75129;SDS011;63703;44.716;37.846;2023-05-07T04:52:26;8.50;;;4.90;;
75129;SDS011;63703;44.716;37.846;2023-05-07T04:54:52;7.93;;;4.38;;
75129;SDS011;63703;44.716;37.846;2023-05-07T04:57:18;7.28;;;3.58;;
75129;SDS011;63703;44.716;37.846;2023-05-07T04:59:44;7.65;;;4.97;;
75129;SDS011;63703;44.716;37.846;2023-05-07T05:02:11;6.97;;;3.25;;
75129;SDS011;63703;44.716;37.846;2023-05-07T05:04:37;8.73;;;3.30;;
75129;SDS011;63703;44.716;37.846;2023-05-07T05:07:04;7.45;;;3.20;;
75129;SDS011;63703;44.716;37.846;2023-05-07T05:09:30;7.28;;;2.58;;
75129;SDS011;63703;44.716;37.846;2023-05-07T05:11:56;10.63;;;3.13;;
75129;SDS011;63703;44.716;37.846;2023-05-07T05:14:22;6.82;;;2.28;;
75129;SDS011;63703;44.716;37.846;2023-05-07T05:16:50;8.68;;;1.70;;
75129;SDS011;63703;44.716;37.846;2023-05-07T05:19:16;4.32;;;3.25;;
75129;SDS011;63703;44.716;37.846;2023-05-07T05:21:43;9.15;;;2.22;;
75129;SDS011;63703;44.716;37.846;2023-05-07T05:24:10;5.03;;;2.13;;
75129;SDS011;63703;44.716;37.846;2023-05-07T05:26:37;5.15;;;1.38;;
75129;SDS011;63703;44.716;37.846;2023-05-07T05:29:04;3.72;;;2.28;;
75129;SDS011;63703;44.716;37.846;2023-05-07T05:31:31;5.95;;;2.47;;
75129;SDS011;63703;44.716;37.846;2023-05-07T05:33:57;5.43;;;2.42;;
75129;SDS011;63703;44.716;37.846;2023-05-07T05:36:24;5.57;;;3.05;;
75129;SDS011;63703;44.716;37.846;2023-05-07T05:38:53;2.85;;;1.05;;
75129;SDS011;63703;44.716;37.846;2023-05-07T05:41:20;6.78;;;2.22;;
75129;SDS011;63703;44.716;37.846;2023-05-07T05:43:47;4.22;;;1.85;;
75129;SDS011;63703;44.716;37.846;2023-05-07T05:46:13;9.10;;;1.98;;
75129;SDS011;63703;44.716;37.846;2023-05-07T05:48:40;3.55;;;1.48;;
75129;SDS011;63703;44.716;37.846;2023-05-07T05:51:07;4.03;;;1.48;;
75129;SDS011;63703;44.716;37.846;2023-05-07T05:53:33;4.65;;;2.42;;
75129;SDS011;63703;44.716;37.846;2023-05-07T05:55:59;3.67;;;2.08;;
75129;SDS011;63703;44.716;37.846;2023-05-07T05:58:25;3.30;;;1.90;;
75129;SDS011;63703;44.716;37.846;2023-05-07T06:00:56;4.63;;;1.17;;
75129;SDS011;63703;44.716;37.846;2023-05-07T06:03:25;4.15;;;1.75;;
75129;SDS011;63703;44.716;37.846;2023-05-07T06:05:52;4.90;;;1.65;;
75129;SDS011;63703;44.716;37.846;2023-05-07T06:08:20;4.65;;;1.00;;
75129;SDS011;63703;44.716;37.846;2023-05-07T06:10:45;4.32;;;1.83;;
75129;SDS011;63703;44.716;37.846;2023-05-07T06:13:12;4.78;;;1.98;;
75129;SDS011;63703;44.716;37.846;2023-05-07T06:15:38;3.55;;;2.08;;
75129;SDS011;63703;44.716;37.846;2023-05-07T06:18:08;5.13;;;1.33;;
75129;SDS011;63703;44.716;37.846;2023-05-07T06:20:34;5.20;;;1.63;;
75129;SDS011;63703;44.716;37.846;2023-05-07T06:23:03;4.38;;;1.02;;
75129;SDS011;63703;44.716;37.846;2023-05-07T06:25:31;4.65;;;1.88;;
75129;SDS011;63703;44.716;37.846;2023-05-07T06:27:57;3.20;;;1.35;;
75129;SDS011;63703;44.716;37.846;2023-05-07T06:30:24;5.90;;;1.45;;
75129;SDS011;63703;44.716;37.846;2023-05-07T06:32:53;5.57;;;0.95;;
75129;SDS011;63703;44.716;37.846;2023-05-07T06:35:19;3.65;;;0.80;;
75129;SDS011;63703;44.716;37.846;2023-05-07T06:37:46;7.95;;;1.83;;
75129;SDS011;63703;44.716;37.846;2023-05-07T06:40:17;5.07;;;1.33;;
75129;SDS011;63703;44.716;37.846;2023-05-07T06:42:44;8.18;;;1.75;;
75129;SDS011;63703;44.716;37.846;2023-05-07T06:45:43;7.35;;;2.03;;
75129;SDS011;63703;44.716;37.846;2023-05-07T06:48:10;4.57;;;1.38;;
75129;SDS011;63703;44.716;37.846;2023-05-07T06:50:45;6.57;;;1.35;;
75129;SDS011;63703;44.716;37.846;2023-05-07T06:53:11;3.75;;;1.15;;
75129;SDS011;63703;44.716;37.846;2023-05-07T06:55:37;4.60;;;1.25;;
75129;SDS011;63703;44.716;37.846;2023-05-07T06:58:05;3.47;;;1.45;;
75129;SDS011;63703;44.716;37.846;2023-05-07T07:00:31;8.50;;;1.08;;
75129;SDS011;63703;44.716;37.846;2023-05-07T07:02:57;3.72;;;1.65;;
75129;SDS011;63703;44.716;37.846;2023-05-07T07:05:26;3.38;;;1.80;;
75129;SDS011;63703;44.716;37.846;2023-05-07T07:07:53;3.63;;;1.60;;
75129;SDS011;63703;44.716;37.846;2023-05-07T07:10:20;5.13;;;2.13;;
75129;SDS011;63703;44.716;37.846;2023-05-07T07:12:46;3.40;;;1.10;;
75129;SDS011;63703;44.716;37.846;2023-05-07T07:15:13;4.60;;;1.02;;
75129;SDS011;63703;44.716;37.846;2023-05-07T07:17:40;8.18;;;1.33;;
75129;SDS011;63703;44.716;37.846;2023-05-07T07:20:06;3.38;;;1.38;;
75129;SDS011;63703;44.716;37.846;2023-05-07T07:22:35;7.47;;;1.45;;
75129;SDS011;63703;44.716;37.846;2023-05-07T07:25:02;3.47;;;1.23;;
75129;SDS011;63703;44.716;37.846;2023-05-07T07:27:28;3.08;;;1.33;;
75129;SDS011;63703;44.716;37.846;2023-05-07T07:29:54;5.38;;;1.10;;
75129;SDS011;63703;44.716;37.846;2023-05-07T07:32:20;3.17;;;1.50;;
75129;SDS011;63703;44.716;37.846;2023-05-07T07:34:46;4.15;;;1.65;;
75129;SDS011;63703;44.716;37.846;2023-05-07T07:37:12;3.92;;;1.15;;
75129;SDS011;63703;44.716;37.846;2023-05-07T07:39:38;5.30;;;1.95;;
75129;SDS011;63703;44.716;37.846;2023-05-07T07:42:06;5.38;;;1.20;;
75129;SDS011;63703;44.716;37.846;2023-05-07T07:44:32;3.85;;;2.08;;
75129;SDS011;63703;44.716;37.846;2023-05-07T07:47:04;4.00;;;1.20;;
75129;SDS011;63703;44.716;37.846;2023-05-07T07:49:30;4.90;;;2.05;;
75129;SDS011;63703;44.716;37.846;2023-05-07T07:51:59;5.88;;;0.85;;
75129;SDS011;63703;44.716;37.846;2023-05-07T07:54:26;3.97;;;0.82;;
75129;SDS011;63703;44.716;37.846;2023-05-07T07:56:52;5.25;;;1.60;;
75129;SDS011;63703;44.716;37.846;2023-05-07T07:59:19;3.22;;;1.20;;
75129;SDS011;63703;44.716;37.846;2023-05-07T08:01:48;3.72;;;1.80;;
75129;SDS011;63703;44.716;37.846;2023-05-07T08:04:16;4.93;;;1.15;;
75129;SDS011;63703;44.716;37.846;2023-05-07T08:06:43;3.67;;;0.85;;
75129;SDS011;63703;44.716;37.846;2023-05-07T08:09:10;3.78;;;1.20;;
75129;SDS011;63703;44.716;37.846;2023-05-07T08:11:38;6.47;;;1.35;;
75129;SDS011;63703;44.716;37.846;2023-05-07T08:14:04;6.95;;;1.38;;
75129;SDS011;63703;44.716;37.846;2023-05-07T08:16:30;2.85;;;1.05;;
75129;SDS011;63703;44.716;37.846;2023-05-07T08:18:58;4.28;;;1.08;;
75129;SDS011;63703;44.716;37.846;2023-05-07T08:21:24;3.25;;;1.02;;
75129;SDS011;63703;44.716;37.846;2023-05-07T08:23:51;8.40;;;2.20;;
75129;SDS011;63703;44.716;37.846;2023-05-07T08:26:17;5.22;;;1.45;;
75129;SDS011;63703;44.716;37.846;2023-05-07T08:28:43;4.95;;;1.75;;
75129;SDS011;63703;44.716;37.846;2023-05-07T08:31:09;4.35;;;1.30;;
75129;SDS011;63703;44.716;37.846;2023-05-07T08:33:38;5.82;;;2.55;;
75129;SDS011;63703;44.716;37.846;2023-05-07T08:36:04;9.15;;;1.38;;
75129;SDS011;63703;44.716;37.846;2023-05-07T08:38:31;6.97;;;1.42;;
75129;SDS011;63703;44.716;37.846;2023-05-07T08:40:57;6.65;;;2.40;;
75129;SDS011;63703;44.716;37.846;2023-05-07T08:43:26;9.10;;;1.65;;
75129;SDS011;63703;44.716;37.846;2023-05-07T08:45:53;5.97;;;1.52;;
75129;SDS011;63703;44.716;37.846;2023-05-07T08:48:25;5.32;;;2.20;;
75129;SDS011;63703;44.716;37.846;2023-05-07T08:50:59;3.25;;;1.60;;
75129;SDS011;63703;44.716;37.846;2023-05-07T08:53:26;5.55;;;1.80;;
75129;SDS011;63703;44.716;37.846;2023-05-07T08:55:53;4.25;;;1.70;;
75129;SDS011;63703;44.716;37.846;2023-05-07T08:58:19;4.88;;;1.10;;
75129;SDS011;63703;44.716;37.846;2023-05-07T09:00:45;5.72;;;2.28;;
75129;SDS011;63703;44.716;37.846;2023-05-07T09:03:13;7.30;;;1.55;;
75129;SDS011;63703;44.716;37.846;2023-05-07T09:05:43;8.88;;;2.03;;
75129;SDS011;63703;44.716;37.846;2023-05-07T09:08:14;3.78;;;1.27;;
75129;SDS011;63703;44.716;37.846;2023-05-07T09:10:40;5.65;;;2.45;;
75129;SDS011;63703;44.716;37.846;2023-05-07T09:13:06;8.02;;;1.65;;
75129;SDS011;63703;44.716;37.846;2023-05-07T09:15:33;6.13;;;1.58;;
75129;SDS011;63703;44.716;37.846;2023-05-07T09:17:59;5.78;;;2.50;;
75129;SDS011;63703;44.716;37.846;2023-05-07T09:20:31;5.18;;;1.90;;
75129;SDS011;63703;44.716;37.846;2023-05-07T09:22:57;4.50;;;1.45;;
75129;SDS011;63703;44.716;37.846;2023-05-07T09:25:31;4.28;;;1.25;;
75129;SDS011;63703;44.716;37.846;2023-05-07T09:28:11;6.13;;;1.88;;
75129;SDS011;63703;44.716;37.846;2023-05-07T09:30:37;5.93;;;2.03;;
75129;SDS011;63703;44.716;37.846;2023-05-07T09:33:06;4.53;;;2.20;;
75129;SDS011;63703;44.716;37.846;2023-05-07T09:35:35;5.55;;;1.23;;
75129;SDS011;63703;44.716;37.846;2023-05-07T09:38:08;5.28;;;1.58;;
75129;SDS011;63703;44.716;37.846;2023-05-07T09:40:35;6.53;;;2.00;;
75129;SDS011;63703;44.716;37.846;2023-05-07T09:43:09;5.22;;;1.70;;
75129;SDS011;63703;44.716;37.846;2023-05-07T09:45:40;4.93;;;1.45;;
75129;SDS011;63703;44.716;37.846;2023-05-07T09:48:07;7.22;;;1.55;;
75129;SDS011;63703;44.716;37.846;2023-05-07T09:50:35;7.85;;;1.88;;
75129;SDS011;63703;44.716;37.846;2023-05-07T09:53:06;7.03;;;1.13;;
75129;SDS011;63703;44.716;37.846;2023-05-07T09:55:35;5.03;;;2.15;;
75129;SDS011;63703;44.716;37.846;2023-05-07T09:58:02;8.48;;;2.38;;
75129;SDS011;63703;44.716;37.846;2023-05-07T10:00:30;7.32;;;2.13;;
75129;SDS011;63703;44.716;37.846;2023-05-07T10:03:05;5.43;;;2.25;;
75129;SDS011;63703;44.716;37.846;2023-05-07T10:05:40;4.88;;;1.88;;
75129;SDS011;63703;44.716;37.846;2023-05-07T10:08:10;6.78;;;2.25;;
75129;SDS011;63703;44.716;37.846;2023-05-07T10:10:38;6.18;;;2.92;;
75129;SDS011;63703;44.716;37.846;2023-05-07T10:13:08;7.15;;;1.98;;
75129;SDS011;63703;44.716;37.846;2023-05-07T10:15:38;6.07;;;2.53;;
75129;SDS011;63703;44.716;37.846;2023-05-07T10:18:05;9.70;;;2.25;;
75129;SDS011;63703;44.716;37.846;2023-05-07T10:20:34;5.63;;;1.80;;
75129;SDS011;63703;44.716;37.846;2023-05-07T10:23:04;7.32;;;2.67;;
75129;SDS011;63703;44.716;37.846;2023-05-07T10:25:38;8.43;;;1.90;;
75129;SDS011;63703;44.716;37.846;2023-05-07T10:28:11;5.30;;;2.00;;
75129;SDS011;63703;44.716;37.846;2023-05-07T10:30:47;8.82;;;2.53;;
75129;SDS011;63703;44.716;37.846;2023-05-07T10:33:21;9.98;;;2.75;;
75129;SDS011;63703;44.716;37.846;2023-05-07T10:35:51;8.23;;;2.15;;
75129;SDS011;63703;44.716;37.846;2023-05-07T10:38:22;7.25;;;1.98;;
75129;SDS011;63703;44.716;37.846;2023-05-07T10:40:51;6.55;;;2.35;;
75129;SDS011;63703;44.716;37.846;2023-05-07T10:43:17;5.57;;;2.53;;
75129;SDS011;63703;44.716;37.846;2023-05-07T10:46:10;6.70;;;2.53;;
75129;SDS011;63703;44.716;37.846;2023-05-07T10:51:37;6.30;;;2.40;;
75129;SDS011;63703;44.716;37.846;2023-05-07T10:56:47;8.10;;;2.60;;
75129;SDS011;63703;44.716;37.846;2023-05-07T11:01:56;6.15;;;2.97;;
75129;SDS011;63703;44.716;37.846;2023-05-07T11:04:34;6.03;;;1.98;;
75129;SDS011;63703;44.716;37.846;2023-05-07T11:07:23;7.60;;;2.58;;
75129;SDS011;63703;44.716;37.846;2023-05-07T11:15:33;6.50;;;2.42;;
75129;SDS011;63703;44.716;37.846;2023-05-07T11:18:18;11.57;;;2.55;;
75129;SDS011;63703;44.716;37.846;2023-05-07T11:26:24;9.75;;;3.08;;
75129;SDS011;63703;44.716;37.846;2023-05-07T11:28:52;9.32;;;3.15;;
75129;SDS011;63703;44.716;37.846;2023-05-07T11:31:26;8.00;;;3.03;;
75129;SDS011;63703;44.716;37.846;2023-05-07T11:33:55;25.83;;;2.90;;
75129;SDS011;63703;44.716;37.846;2023-05-07T11:36:23;8.82;;;3.05;;
75129;SDS011;63703;44.716;37.846;2023-05-07T11:38:51;7.53;;;3.10;;
75129;SDS011;63703;44.716;37.846;2023-05-07T11:41:17;9.98;;;2.70;;
75129;SDS011;63703;44.716;37.846;2023-05-07T11:43:57;7.22;;;3.22;;
75129;SDS011;63703;44.716;37.846;2023-05-07T11:46:24;7.53;;;3.65;;
75129;SDS011;63703;44.716;37.846;2023-05-07T11:48:50;9.00;;;3.42;;
75129;SDS011;63703;44.716;37.846;2023-05-07T11:51:20;8.45;;;4.15;;
75129;SDS011;63703;44.716;37.846;2023-05-07T11:53:47;8.80;;;3.70;;
75129;SDS011;63703;44.716;37.846;2023-05-07T11:56:15;6.30;;;3.28;;
75129;SDS011;63703;44.716;37.846;2023-05-07T11:58:42;6.63;;;3.13;;
75129;SDS011;63703;44.716;37.846;2023-05-07T12:01:09;9.30;;;2.33;;
75129;SDS011;63703;44.716;37.846;2023-05-07T12:03:37;9.30;;;3.00;;
75129;SDS011;63703;44.716;37.846;2023-05-07T12:06:07;7.90;;;3.60;;
75129;SDS011;63703;44.716;37.846;2023-05-07T12:08:36;8.35;;;2.65;;
75129;SDS011;63703;44.716;37.846;2023-05-07T12:11:03;9.38;;;3.90;;
75129;SDS011;63703;44.716;37.846;2023-05-07T12:13:32;6.55;;;3.35;;
75129;SDS011;63703;44.716;37.846;2023-05-07T12:15:58;10.75;;;3.63;;
75129;SDS011;63703;44.716;37.846;2023-05-07T12:18:24;9.38;;;3.17;;
75129;SDS011;63703;44.716;37.846;2023-05-07T12:20:51;12.88;;;3.03;;
75129;SDS011;63703;44.716;37.846;2023-05-07T12:23:17;9.10;;;2.60;;
75129;SDS011;63703;44.716;37.846;2023-05-07T12:25:44;6.63;;;3.03;;
75129;SDS011;63703;44.716;37.846;2023-05-07T12:28:13;7.38;;;3.60;;
75129;SDS011;63703;44.716;37.846;2023-05-07T12:30:43;13.00;;;3.55;;
75129;SDS011;63703;44.716;37.846;2023-05-07T12:33:12;9.43;;;2.85;;
75129;SDS011;63703;44.716;37.846;2023-05-07T12:35:42;10.43;;;4.22;;
75129;SDS011;63703;44.716;37.846;2023-05-07T12:38:12;11.90;;;4.18;;
75129;SDS011;63703;44.716;37.846;2023-05-07T12:40:40;8.82;;;3.63;;
75129;SDS011;63703;44.716;37.846;2023-05-07T12:43:07;8.63;;;3.40;;
75129;SDS011;63703;44.716;37.846;2023-05-07T12:45:40;8.90;;;2.53;;
75129;SDS011;63703;44.716;37.846;2023-05-07T12:48:09;6.55;;;2.65;;
75129;SDS011;63703;44.716;37.846;2023-05-07T12:50:36;7.47;;;2.50;;
75129;SDS011;63703;44.716;37.846;2023-05-07T12:53:05;11.85;;;3.90;;
75129;SDS011;63703;44.716;37.846;2023-05-07T12:55:42;10.98;;;2.67;;
75129;SDS011;63703;44.716;37.846;2023-05-07T13:00:56;7.75;;;2.88;;
75129;SDS011;63703;44.716;37.846;2023-05-07T13:03:25;8.13;;;2.65;;
75129;SDS011;63703;44.716;37.846;2023-05-07T13:05:54;9.45;;;3.25;;
75129;SDS011;63703;44.716;37.846;2023-05-07T13:08:24;14.50;;;3.83;;
75129;SDS011;63703;44.716;37.846;2023-05-07T13:10:52;7.13;;;4.03;;
75129;SDS011;63703;44.716;37.846;2023-05-07T13:13:18;7.72;;;3.13;;
75129;SDS011;63703;44.716;37.846;2023-05-07T13:15:45;9.93;;;3.20;;
75129;SDS011;63703;44.716;37.846;2023-05-07T13:18:12;10.00;;;3.25;;
75129;SDS011;63703;44.716;37.846;2023-05-07T13:20:38;10.80;;;4.80;;
75129;SDS011;63703;44.716;37.846;2023-05-07T13:23:04;9.38;;;4.15;;
75129;SDS011;63703;44.716;37.846;2023-05-07T13:25:30;8.27;;;3.72;;
75129;SDS011;63703;44.716;37.846;2023-05-07T13:27:56;5.70;;;3.03;;
75129;SDS011;63703;44.716;37.846;2023-05-07T13:30:23;7.55;;;3.40;;
75129;SDS011;63703;44.716;37.846;2023-05-07T13:32:49;9.88;;;3.25;;
75129;SDS011;63703;44.716;37.846;2023-05-07T13:35:16;6.90;;;3.03;;
75129;SDS011;63703;44.716;37.846;2023-05-07T13:37:42;7.50;;;2.97;;
75129;SDS011;63703;44.716;37.846;2023-05-07T13:40:08;8.48;;;3.28;;
75129;SDS011;63703;44.716;37.846;2023-05-07T13:42:36;9.80;;;3.40;;
75129;SDS011;63703;44.716;37.846;2023-05-07T13:45:02;9.57;;;3.75;;
75129;SDS011;63703;44.716;37.846;2023-05-07T13:47:30;13.63;;;3.80;;
75129;SDS011;63703;44.716;37.846;2023-05-07T13:49:56;8.55;;;4.43;;
75129;SDS011;63703;44.716;37.846;2023-05-07T13:52:22;8.77;;;3.30;;
75129;SDS011;63703;44.716;37.846;2023-05-07T13:54:48;8.65;;;3.55;;
75129;SDS011;63703;44.716;37.846;2023-05-07T13:57:14;7.68;;;3.30;;
75129;SDS011;63703;44.716;37.846;2023-05-07T13:59:40;10.68;;;3.35;;
75129;SDS011;63703;44.716;37.846;2023-05-07T14:02:06;10.02;;;3.75;;
75129;SDS011;63703;44.716;37.846;2023-05-07T14:04:33;9.63;;;2.75;;
75129;SDS011;63703;44.716;37.846;2023-05-07T14:06:59;10.75;;;3.47;;
75129;SDS011;63703;44.716;37.846;2023-05-07T14:09:25;6.28;;;3.22;;
75129;SDS011;63703;44.716;37.846;2023-05-07T14:11:51;9.73;;;3.38;;
75129;SDS011;63703;44.716;37.846;2023-05-07T14:14:17;8.60;;;5.68;;
75129;SDS011;63703;44.716;37.846;2023-05-07T14:16:44;9.85;;;3.97;;
75129;SDS011;63703;44.716;37.846;2023-05-07T14:19:10;7.68;;;3.38;;
75129;SDS011;63703;44.716;37.846;2023-05-07T14:21:40;7.30;;;3.08;;
75129;SDS011;63703;44.716;37.846;2023-05-07T14:24:07;10.80;;;2.58;;
75129;SDS011;63703;44.716;37.846;2023-05-07T14:26:34;14.32;;;3.55;;
75129;SDS011;63703;44.716;37.846;2023-05-07T14:29:00;6.47;;;2.45;;
75129;SDS011;63703;44.716;37.846;2023-05-07T14:31:26;7.38;;;3.13;;
75129;SDS011;63703;44.716;37.846;2023-05-07T14:33:52;6.40;;;3.08;;
75129;SDS011;63703;44.716;37.846;2023-05-07T14:36:18;7.85;;;2.85;;
75129;SDS011;63703;44.716;37.846;2023-05-07T14:38:51;8.40;;;2.83;;
75129;SDS011;63703;44.716;37.846;2023-05-07T14:41:19;8.95;;;3.20;;
75129;SDS011;63703;44.716;37.846;2023-05-07T14:43:47;6.60;;;3.53;;
75129;SDS011;63703;44.716;37.846;2023-05-07T14:46:16;9.02;;;4.15;;
75129;SDS011;63703;44.716;37.846;2023-05-07T14:48:44;7.80;;;2.88;;
75129;SDS011;63703;44.716;37.846;2023-05-07T14:51:14;7.68;;;3.15;;
75129;SDS011;63703;44.716;37.846;2023-05-07T14:53:40;6.05;;;2.03;;
75129;SDS011;63703;44.716;37.846;2023-05-07T14:56:07;6.80;;;2.42;;
75129;SDS011;63703;44.716;37.846;2023-05-07T14:58:33;8.02;;;2.67;;